sensor_id;sensor_type;location;lat;lon;timestamp;P1;durP1;ratioP1;P2;durP2;ratioP2
803;SDS011;25687;49.976;8.240;2024-01-30T00:01:37;23.80;;;18.60;;
803;SDS011;25687;49.976;8.240;2024-01-30T00:04:03;25.40;;;17.83;;
803;SDS011;25687;49.976;8.240;2024-01-30T00:06:28;25.47;;;18.73;;
803;SDS011;25687;49.976;8.240;2024-01-30T00:08:53;24.13;;;18.43;;
803;SDS011;25687;49.976;8.240;2024-01-30T00:11:19;24.27;;;18.20;;
803;SDS011;25687;49.976;8.240;2024-01-30T00:13:44;27.70;;;18.17;;
803;SDS011;25687;49.976;8.240;2024-01-30T00:16:19;24.70;;;19.30;;
803;SDS011;25687;49.976;8.240;2024-01-30T00:18:47;23.70;;;18.30;;
803;SDS011;25687;49.976;8.240;2024-01-30T00:21:12;24.90;;;17.97;;
803;SDS011;25687;49.976;8.240;2024-01-30T00:23:38;26.10;;;18.63;;
803;SDS011;25687;49.976;8.240;2024-01-30T00:26:03;24.23;;;18.87;;
803;SDS011;25687;49.976;8.240;2024-01-30T00:28:30;23.37;;;16.80;;
803;SDS011;25687;49.976;8.240;2024-01-30T00:30:55;27.23;;;19.37;;
803;SDS011;25687;49.976;8.240;2024-01-30T00:33:20;26.10;;;17.90;;
803;SDS011;25687;49.976;8.240;2024-01-30T00:35:46;23.63;;;18.17;;
803;SDS011;25687;49.976;8.240;2024-01-30T00:38:12;28.27;;;19.03;;
803;SDS011;25687;49.976;8.240;2024-01-30T00:40:37;25.03;;;18.83;;
803;SDS011;25687;49.976;8.240;2024-01-30T00:43:02;27.33;;;18.63;;
803;SDS011;25687;49.976;8.240;2024-01-30T00:45:28;23.60;;;18.27;;
803;SDS011;25687;49.976;8.240;2024-01-30T00:47:53;26.83;;;19.13;;
803;SDS011;25687;49.976;8.240;2024-01-30T00:50:18;24.53;;;18.70;;
803;SDS011;25687;49.976;8.240;2024-01-30T00:52:44;26.60;;;18.57;;
803;SDS011;25687;49.976;8.240;2024-01-30T00:55:10;25.97;;;18.77;;
803;SDS011;25687;49.976;8.240;2024-01-30T00:57:36;24.93;;;18.27;;
803;SDS011;25687;49.976;8.240;2024-01-30T01:00:01;27.47;;;17.03;;
803;SDS011;25687;49.976;8.240;2024-01-30T01:02:27;26.97;;;18.40;;
803;SDS011;25687;49.976;8.240;2024-01-30T01:04:52;30.13;;;18.30;;
803;SDS011;25687;49.976;8.240;2024-01-30T01:07:17;28.40;;;19.00;;
803;SDS011;25687;49.976;8.240;2024-01-30T01:09:42;26.40;;;18.20;;
803;SDS011;25687;49.976;8.240;2024-01-30T01:12:07;22.03;;;16.60;;
803;SDS011;25687;49.976;8.240;2024-01-30T01:14:33;23.90;;;17.33;;
803;SDS011;25687;49.976;8.240;2024-01-30T01:16:58;26.53;;;18.77;;
803;SDS011;25687;49.976;8.240;2024-01-30T01:19:23;27.93;;;18.27;;
803;SDS011;25687;49.976;8.240;2024-01-30T01:21:48;23.13;;;17.43;;
803;SDS011;25687;49.976;8.240;2024-01-30T01:24:14;23.50;;;17.27;;
803;SDS011;25687;49.976;8.240;2024-01-30T01:26:39;27.33;;;18.47;;
803;SDS011;25687;49.976;8.240;2024-01-30T01:29:05;24.77;;;18.37;;
803;SDS011;25687;49.976;8.240;2024-01-30T01:31:37;29.80;;;18.43;;
803;SDS011;25687;49.976;8.240;2024-01-30T01:34:09;25.83;;;17.83;;
803;SDS011;25687;49.976;8.240;2024-01-30T01:36:37;27.13;;;18.23;;
803;SDS011;25687;49.976;8.240;2024-01-30T01:39:03;22.57;;;16.93;;
803;SDS011;25687;49.976;8.240;2024-01-30T01:41:31;23.93;;;17.83;;
803;SDS011;25687;49.976;8.240;2024-01-30T01:43:58;30.03;;;18.23;;
803;SDS011;25687;49.976;8.240;2024-01-30T01:46:26;23.00;;;18.03;;
803;SDS011;25687;49.976;8.240;2024-01-30T01:48:52;27.27;;;19.20;;
803;SDS011;25687;49.976;8.240;2024-01-30T01:51:18;25.77;;;17.87;;
803;SDS011;25687;49.976;8.240;2024-01-30T01:53:44;26.00;;;18.97;;
803;SDS011;25687;49.976;8.240;2024-01-30T01:56:09;26.13;;;17.17;;
803;SDS011;25687;49.976;8.240;2024-01-30T01:58:35;24.97;;;17.80;;
803;SDS011;25687;49.976;8.240;2024-01-30T02:01:03;26.60;;;18.93;;
803;SDS011;25687;49.976;8.240;2024-01-30T02:03:30;30.70;;;18.67;;
803;SDS011;25687;49.976;8.240;2024-01-30T02:05:55;22.43;;;17.50;;
803;SDS011;25687;49.976;8.240;2024-01-30T02:08:22;26.80;;;18.30;;
803;SDS011;25687;49.976;8.240;2024-01-30T02:10:48;24.77;;;17.97;;
803;SDS011;25687;49.976;8.240;2024-01-30T02:13:13;26.17;;;17.80;;
803;SDS011;25687;49.976;8.240;2024-01-30T02:15:39;25.83;;;18.47;;
803;SDS011;25687;49.976;8.240;2024-01-30T02:18:04;27.03;;;18.33;;
803;SDS011;25687;49.976;8.240;2024-01-30T02:20:30;27.00;;;19.13;;
803;SDS011;25687;49.976;8.240;2024-01-30T02:22:58;22.87;;;17.27;;
803;SDS011;25687;49.976;8.240;2024-01-30T02:25:57;26.33;;;17.70;;
803;SDS011;25687;49.976;8.240;2024-01-30T02:28:18;31.23;;;19.53;;
803;SDS011;25687;49.976;8.240;2024-01-30T02:30:44;26.17;;;18.00;;
803;SDS011;25687;49.976;8.240;2024-01-30T02:33:11;26.73;;;17.27;;
803;SDS011;25687;49.976;8.240;2024-01-30T02:35:36;26.83;;;16.67;;
803;SDS011;25687;49.976;8.240;2024-01-30T02:38:01;28.00;;;17.70;;
803;SDS011;25687;49.976;8.240;2024-01-30T02:40:26;22.23;;;17.37;;
803;SDS011;25687;49.976;8.240;2024-01-30T02:42:52;24.57;;;17.27;;
803;SDS011;25687;49.976;8.240;2024-01-30T02:45:17;26.70;;;18.50;;
803;SDS011;25687;49.976;8.240;2024-01-30T02:47:43;22.47;;;16.97;;
803;SDS011;25687;49.976;8.240;2024-01-30T02:50:08;24.70;;;18.80;;
803;SDS011;25687;49.976;8.240;2024-01-30T02:52:34;25.83;;;18.67;;
803;SDS011;25687;49.976;8.240;2024-01-30T02:54:59;28.33;;;18.80;;
803;SDS011;25687;49.976;8.240;2024-01-30T02:57:25;26.90;;;16.83;;
803;SDS011;25687;49.976;8.240;2024-01-30T02:59:50;30.13;;;20.40;;
803;SDS011;25687;49.976;8.240;2024-01-30T03:02:16;24.63;;;18.63;;
803;SDS011;25687;49.976;8.240;2024-01-30T03:04:41;26.70;;;19.10;;
803;SDS011;25687;49.976;8.240;2024-01-30T03:07:07;27.27;;;18.40;;
803;SDS011;25687;49.976;8.240;2024-01-30T03:09:32;30.67;;;20.63;;
803;SDS011;25687;49.976;8.240;2024-01-30T03:11:58;26.60;;;18.83;;
803;SDS011;25687;49.976;8.240;2024-01-30T03:14:23;29.30;;;18.10;;
803;SDS011;25687;49.976;8.240;2024-01-30T03:16:48;23.80;;;17.10;;
803;SDS011;25687;49.976;8.240;2024-01-30T03:19:14;28.20;;;19.13;;
803;SDS011;25687;49.976;8.240;2024-01-30T03:21:39;24.47;;;17.07;;
803;SDS011;25687;49.976;8.240;2024-01-30T03:24:04;25.17;;;18.17;;
803;SDS011;25687;49.976;8.240;2024-01-30T03:26:30;24.20;;;17.97;;
803;SDS011;25687;49.976;8.240;2024-01-30T03:28:55;28.20;;;17.60;;
803;SDS011;25687;49.976;8.240;2024-01-30T03:31:21;21.30;;;16.07;;
803;SDS011;25687;49.976;8.240;2024-01-30T03:33:46;26.33;;;18.17;;
803;SDS011;25687;49.976;8.240;2024-01-30T03:36:11;22.60;;;17.73;;
803;SDS011;25687;49.976;8.240;2024-01-30T03:38:36;24.77;;;17.83;;
803;SDS011;25687;49.976;8.240;2024-01-30T03:41:02;24.27;;;17.80;;
803;SDS011;25687;49.976;8.240;2024-01-30T03:43:27;23.57;;;17.63;;
803;SDS011;25687;49.976;8.240;2024-01-30T03:45:53;25.63;;;17.43;;
803;SDS011;25687;49.976;8.240;2024-01-30T03:48:18;25.90;;;18.27;;
803;SDS011;25687;49.976;8.240;2024-01-30T03:50:44;29.33;;;18.77;;
803;SDS011;25687;49.976;8.240;2024-01-30T03:53:09;23.83;;;17.73;;
803;SDS011;25687;49.976;8.240;2024-01-30T03:55:34;28.33;;;18.70;;
803;SDS011;25687;49.976;8.240;2024-01-30T03:57:59;25.07;;;18.03;;
803;SDS011;25687;49.976;8.240;2024-01-30T04:00:25;25.67;;;18.67;;
803;SDS011;25687;49.976;8.240;2024-01-30T04:02:50;26.53;;;19.10;;
803;SDS011;25687;49.976;8.240;2024-01-30T04:05:16;30.90;;;18.90;;
803;SDS011;25687;49.976;8.240;2024-01-30T04:07:41;23.97;;;18.57;;
803;SDS011;25687;49.976;8.240;2024-01-30T04:10:07;25.47;;;19.30;;
803;SDS011;25687;49.976;8.240;2024-01-30T04:12:34;28.33;;;19.70;;
803;SDS011;25687;49.976;8.240;2024-01-30T04:15:00;25.97;;;20.07;;
803;SDS011;25687;49.976;8.240;2024-01-30T04:17:25;27.23;;;18.90;;
803;SDS011;25687;49.976;8.240;2024-01-30T04:19:50;25.47;;;17.67;;
803;SDS011;25687;49.976;8.240;2024-01-30T04:22:16;23.83;;;17.30;;
803;SDS011;25687;49.976;8.240;2024-01-30T04:24:41;25.50;;;17.53;;
803;SDS011;25687;49.976;8.240;2024-01-30T04:27:06;27.10;;;18.40;;
803;SDS011;25687;49.976;8.240;2024-01-30T04:29:31;31.27;;;18.57;;
803;SDS011;25687;49.976;8.240;2024-01-30T04:31:57;24.63;;;18.77;;
803;SDS011;25687;49.976;8.240;2024-01-30T04:34:23;25.33;;;16.80;;
803;SDS011;25687;49.976;8.240;2024-01-30T04:36:48;29.93;;;18.43;;
803;SDS011;25687;49.976;8.240;2024-01-30T04:39:13;28.93;;;19.17;;
803;SDS011;25687;49.976;8.240;2024-01-30T04:41:38;25.73;;;18.17;;
803;SDS011;25687;49.976;8.240;2024-01-30T04:44:04;25.93;;;19.00;;
803;SDS011;25687;49.976;8.240;2024-01-30T04:46:30;24.20;;;17.17;;
803;SDS011;25687;49.976;8.240;2024-01-30T04:48:55;28.70;;;18.73;;
803;SDS011;25687;49.976;8.240;2024-01-30T04:51:20;21.97;;;17.53;;
803;SDS011;25687;49.976;8.240;2024-01-30T04:53:45;24.07;;;19.20;;
803;SDS011;25687;49.976;8.240;2024-01-30T04:56:11;22.70;;;17.97;;
803;SDS011;25687;49.976;8.240;2024-01-30T04:58:36;29.17;;;19.73;;
803;SDS011;25687;49.976;8.240;2024-01-30T05:01:01;32.53;;;20.37;;
803;SDS011;25687;49.976;8.240;2024-01-30T05:03:27;24.17;;;18.20;;
803;SDS011;25687;49.976;8.240;2024-01-30T05:05:52;27.23;;;18.77;;
803;SDS011;25687;49.976;8.240;2024-01-30T05:08:18;27.20;;;18.33;;
803;SDS011;25687;49.976;8.240;2024-01-30T05:10:43;26.83;;;17.87;;
803;SDS011;25687;49.976;8.240;2024-01-30T05:13:08;29.40;;;18.50;;
803;SDS011;25687;49.976;8.240;2024-01-30T05:15:33;26.47;;;18.63;;
803;SDS011;25687;49.976;8.240;2024-01-30T05:17:59;26.63;;;18.17;;
803;SDS011;25687;49.976;8.240;2024-01-30T05:20:24;28.10;;;18.77;;
803;SDS011;25687;49.976;8.240;2024-01-30T05:22:52;26.97;;;18.00;;
803;SDS011;25687;49.976;8.240;2024-01-30T05:25:18;25.93;;;17.83;;
803;SDS011;25687;49.976;8.240;2024-01-30T05:27:43;28.17;;;18.20;;
803;SDS011;25687;49.976;8.240;2024-01-30T05:30:09;29.07;;;19.10;;
803;SDS011;25687;49.976;8.240;2024-01-30T05:32:35;28.43;;;19.00;;
803;SDS011;25687;49.976;8.240;2024-01-30T05:35:00;33.87;;;19.30;;
803;SDS011;25687;49.976;8.240;2024-01-30T05:37:26;27.10;;;19.53;;
803;SDS011;25687;49.976;8.240;2024-01-30T05:39:51;24.87;;;18.07;;
803;SDS011;25687;49.976;8.240;2024-01-30T05:42:16;24.27;;;18.33;;
803;SDS011;25687;49.976;8.240;2024-01-30T05:44:42;23.03;;;17.73;;
803;SDS011;25687;49.976;8.240;2024-01-30T05:47:07;24.37;;;17.33;;
803;SDS011;25687;49.976;8.240;2024-01-30T05:49:32;26.13;;;18.33;;
803;SDS011;25687;49.976;8.240;2024-01-30T05:51:58;24.90;;;18.37;;
803;SDS011;25687;49.976;8.240;2024-01-30T05:54:23;25.17;;;17.67;;
803;SDS011;25687;49.976;8.240;2024-01-30T05:56:48;23.80;;;18.13;;
803;SDS011;25687;49.976;8.240;2024-01-30T05:59:14;29.17;;;18.63;;
803;SDS011;25687;49.976;8.240;2024-01-30T06:01:45;25.63;;;18.67;;
803;SDS011;25687;49.976;8.240;2024-01-30T06:04:13;26.97;;;19.90;;
803;SDS011;25687;49.976;8.240;2024-01-30T06:06:39;26.47;;;18.03;;
803;SDS011;25687;49.976;8.240;2024-01-30T06:09:04;27.57;;;20.27;;
803;SDS011;25687;49.976;8.240;2024-01-30T06:11:30;27.00;;;18.60;;
803;SDS011;25687;49.976;8.240;2024-01-30T06:13:55;29.17;;;19.60;;
803;SDS011;25687;49.976;8.240;2024-01-30T06:16:21;25.27;;;18.33;;
803;SDS011;25687;49.976;8.240;2024-01-30T06:18:46;30.20;;;18.60;;
803;SDS011;25687;49.976;8.240;2024-01-30T06:21:12;29.87;;;19.73;;
803;SDS011;25687;49.976;8.240;2024-01-30T06:23:38;28.43;;;18.53;;
803;SDS011;25687;49.976;8.240;2024-01-30T06:26:03;23.17;;;17.70;;
803;SDS011;25687;49.976;8.240;2024-01-30T06:28:28;34.43;;;18.60;;
803;SDS011;25687;49.976;8.240;2024-01-30T06:30:54;23.93;;;18.33;;
803;SDS011;25687;49.976;8.240;2024-01-30T06:33:19;28.23;;;19.40;;
803;SDS011;25687;49.976;8.240;2024-01-30T06:35:44;24.57;;;18.87;;
803;SDS011;25687;49.976;8.240;2024-01-30T06:38:10;31.73;;;18.83;;
803;SDS011;25687;49.976;8.240;2024-01-30T06:40:36;25.50;;;17.70;;
803;SDS011;25687;49.976;8.240;2024-01-30T06:43:01;27.13;;;19.13;;
803;SDS011;25687;49.976;8.240;2024-01-30T06:45:27;29.63;;;20.17;;
803;SDS011;25687;49.976;8.240;2024-01-30T06:47:52;29.17;;;19.17;;
803;SDS011;25687;49.976;8.240;2024-01-30T06:50:17;27.80;;;19.37;;
803;SDS011;25687;49.976;8.240;2024-01-30T06:52:43;27.80;;;19.27;;
803;SDS011;25687;49.976;8.240;2024-01-30T06:55:08;28.70;;;20.57;;
803;SDS011;25687;49.976;8.240;2024-01-30T06:57:34;28.93;;;20.03;;
803;SDS011;25687;49.976;8.240;2024-01-30T06:59:59;25.77;;;19.03;;
803;SDS011;25687;49.976;8.240;2024-01-30T07:02:25;25.80;;;19.50;;
803;SDS011;25687;49.976;8.240;2024-01-30T07:04:50;26.90;;;19.70;;
803;SDS011;25687;49.976;8.240;2024-01-30T07:07:15;24.27;;;18.33;;
803;SDS011;25687;49.976;8.240;2024-01-30T07:09:41;22.93;;;18.43;;
803;SDS011;25687;49.976;8.240;2024-01-30T07:12:06;29.57;;;18.90;;
803;SDS011;25687;49.976;8.240;2024-01-30T07:14:31;28.03;;;19.87;;
803;SDS011;25687;49.976;8.240;2024-01-30T07:16:57;26.27;;;19.87;;
803;SDS011;25687;49.976;8.240;2024-01-30T07:19:22;28.80;;;19.37;;
803;SDS011;25687;49.976;8.240;2024-01-30T07:21:47;29.20;;;20.73;;
803;SDS011;25687;49.976;8.240;2024-01-30T07:24:13;31.53;;;20.47;;
803;SDS011;25687;49.976;8.240;2024-01-30T07:26:38;31.57;;;20.90;;
803;SDS011;25687;49.976;8.240;2024-01-30T07:29:03;32.10;;;21.63;;
803;SDS011;25687;49.976;8.240;2024-01-30T07:31:29;33.97;;;22.07;;
803;SDS011;25687;49.976;8.240;2024-01-30T07:33:54;32.50;;;21.33;;
803;SDS011;25687;49.976;8.240;2024-01-30T07:36:19;28.53;;;19.53;;
803;SDS011;25687;49.976;8.240;2024-01-30T07:38:45;26.97;;;20.07;;
803;SDS011;25687;49.976;8.240;2024-01-30T07:41:11;29.57;;;19.90;;
803;SDS011;25687;49.976;8.240;2024-01-30T07:43:37;34.13;;;20.90;;
803;SDS011;25687;49.976;8.240;2024-01-30T07:46:03;29.70;;;20.40;;
803;SDS011;25687;49.976;8.240;2024-01-30T07:48:29;23.33;;;19.20;;
803;SDS011;25687;49.976;8.240;2024-01-30T07:50:54;31.27;;;20.97;;
803;SDS011;25687;49.976;8.240;2024-01-30T07:53:19;31.40;;;21.60;;
803;SDS011;25687;49.976;8.240;2024-01-30T08:02:28;28.47;;;20.70;;
803;SDS011;25687;49.976;8.240;2024-01-30T08:04:53;29.33;;;21.80;;
803;SDS011;25687;49.976;8.240;2024-01-30T08:07:19;25.00;;;20.23;;
803;SDS011;25687;49.976;8.240;2024-01-30T08:09:44;28.03;;;21.87;;
803;SDS011;25687;49.976;8.240;2024-01-30T08:12:10;34.47;;;23.97;;
803;SDS011;25687;49.976;8.240;2024-01-30T08:14:35;31.50;;;21.40;;
803;SDS011;25687;49.976;8.240;2024-01-30T08:17:00;32.87;;;22.97;;
803;SDS011;25687;49.976;8.240;2024-01-30T08:19:26;31.20;;;21.60;;
803;SDS011;25687;49.976;8.240;2024-01-30T08:21:51;28.53;;;21.37;;
803;SDS011;25687;49.976;8.240;2024-01-30T08:24:16;29.57;;;21.83;;
803;SDS011;25687;49.976;8.240;2024-01-30T08:26:41;31.67;;;21.73;;
803;SDS011;25687;49.976;8.240;2024-01-30T08:29:07;29.00;;;20.17;;
803;SDS011;25687;49.976;8.240;2024-01-30T08:31:32;31.43;;;21.10;;
803;SDS011;25687;49.976;8.240;2024-01-30T08:33:57;27.90;;;20.77;;
803;SDS011;25687;49.976;8.240;2024-01-30T08:36:23;29.83;;;19.87;;
803;SDS011;25687;49.976;8.240;2024-01-30T08:38:48;25.37;;;19.60;;
803;SDS011;25687;49.976;8.240;2024-01-30T08:41:14;28.57;;;18.93;;
803;SDS011;25687;49.976;8.240;2024-01-30T08:43:39;26.63;;;19.20;;
803;SDS011;25687;49.976;8.240;2024-01-30T08:46:04;27.47;;;18.03;;
803;SDS011;25687;49.976;8.240;2024-01-30T08:48:30;24.87;;;18.40;;
803;SDS011;25687;49.976;8.240;2024-01-30T08:50:56;24.70;;;18.93;;
803;SDS011;25687;49.976;8.240;2024-01-30T08:53:21;22.57;;;18.50;;
803;SDS011;25687;49.976;8.240;2024-01-30T08:55:47;27.97;;;18.27;;
803;SDS011;25687;49.976;8.240;2024-01-30T08:58:12;23.87;;;17.97;;
803;SDS011;25687;49.976;8.240;2024-01-30T09:00:37;21.13;;;16.93;;
803;SDS011;25687;49.976;8.240;2024-01-30T09:03:03;25.57;;;17.90;;
803;SDS011;25687;49.976;8.240;2024-01-30T09:05:28;21.03;;;16.97;;
803;SDS011;25687;49.976;8.240;2024-01-30T09:07:54;23.87;;;19.77;;
803;SDS011;25687;49.976;8.240;2024-01-30T09:10:19;24.93;;;19.10;;
803;SDS011;25687;49.976;8.240;2024-01-30T09:12:45;23.83;;;18.37;;
803;SDS011;25687;49.976;8.240;2024-01-30T09:15:10;25.30;;;17.77;;
803;SDS011;25687;49.976;8.240;2024-01-30T09:17:36;25.23;;;17.87;;
803;SDS011;25687;49.976;8.240;2024-01-30T09:20:01;21.80;;;17.30;;
803;SDS011;25687;49.976;8.240;2024-01-30T09:22:27;22.33;;;18.13;;
803;SDS011;25687;49.976;8.240;2024-01-30T09:24:52;23.47;;;17.17;;
803;SDS011;25687;49.976;8.240;2024-01-30T09:27:17;20.43;;;15.70;;
803;SDS011;25687;49.976;8.240;2024-01-30T09:29:42;27.87;;;17.93;;
803;SDS011;25687;49.976;8.240;2024-01-30T09:32:08;23.93;;;17.50;;
803;SDS011;25687;49.976;8.240;2024-01-30T09:34:34;23.10;;;17.37;;
803;SDS011;25687;49.976;8.240;2024-01-30T09:36:59;23.77;;;18.83;;
803;SDS011;25687;49.976;8.240;2024-01-30T09:39:25;22.77;;;18.17;;
803;SDS011;25687;49.976;8.240;2024-01-30T09:42:05;20.47;;;16.93;;
803;SDS011;25687;49.976;8.240;2024-01-30T09:44:36;25.23;;;15.80;;
803;SDS011;25687;49.976;8.240;2024-01-30T09:47:03;23.13;;;16.20;;
803;SDS011;25687;49.976;8.240;2024-01-30T09:49:34;22.50;;;16.53;;
803;SDS011;25687;49.976;8.240;2024-01-30T09:52:00;20.83;;;16.00;;
803;SDS011;25687;49.976;8.240;2024-01-30T09:54:30;19.40;;;16.10;;
803;SDS011;25687;49.976;8.240;2024-01-30T09:56:56;23.97;;;17.27;;
803;SDS011;25687;49.976;8.240;2024-01-30T09:59:22;20.23;;;15.70;;
803;SDS011;25687;49.976;8.240;2024-01-30T10:01:47;25.80;;;15.63;;
803;SDS011;25687;49.976;8.240;2024-01-30T10:04:13;20.50;;;14.87;;
803;SDS011;25687;49.976;8.240;2024-01-30T10:06:39;19.47;;;15.97;;
803;SDS011;25687;49.976;8.240;2024-01-30T10:09:05;20.43;;;16.23;;
803;SDS011;25687;49.976;8.240;2024-01-30T10:11:30;22.70;;;15.37;;
803;SDS011;25687;49.976;8.240;2024-01-30T10:13:56;21.03;;;15.67;;
803;SDS011;25687;49.976;8.240;2024-01-30T10:16:21;22.07;;;15.93;;
803;SDS011;25687;49.976;8.240;2024-01-30T10:18:46;18.60;;;15.67;;
803;SDS011;25687;49.976;8.240;2024-01-30T10:21:12;20.73;;;15.53;;
803;SDS011;25687;49.976;8.240;2024-01-30T10:23:37;18.40;;;16.47;;
803;SDS011;25687;49.976;8.240;2024-01-30T10:26:07;20.13;;;16.20;;
803;SDS011;25687;49.976;8.240;2024-01-30T10:28:33;17.73;;;15.77;;
803;SDS011;25687;49.976;8.240;2024-01-30T10:30:59;19.63;;;15.90;;
803;SDS011;25687;49.976;8.240;2024-01-30T10:33:25;18.93;;;15.70;;
803;SDS011;25687;49.976;8.240;2024-01-30T10:35:51;18.67;;;14.77;;
803;SDS011;25687;49.976;8.240;2024-01-30T10:38:16;19.67;;;16.43;;
803;SDS011;25687;49.976;8.240;2024-01-30T10:40:45;20.10;;;14.80;;
803;SDS011;25687;49.976;8.240;2024-01-30T10:43:12;19.40;;;15.17;;
803;SDS011;25687;49.976;8.240;2024-01-30T10:45:41;22.47;;;17.03;;
803;SDS011;25687;49.976;8.240;2024-01-30T10:48:11;21.70;;;15.70;;
803;SDS011;25687;49.976;8.240;2024-01-30T10:50:37;19.73;;;14.43;;
803;SDS011;25687;49.976;8.240;2024-01-30T10:53:05;20.00;;;14.60;;
803;SDS011;25687;49.976;8.240;2024-01-30T10:55:33;18.03;;;15.43;;
803;SDS011;25687;49.976;8.240;2024-01-30T10:57:59;18.53;;;14.47;;
803;SDS011;25687;49.976;8.240;2024-01-30T11:00:25;19.03;;;15.47;;
803;SDS011;25687;49.976;8.240;2024-01-30T11:02:51;18.60;;;14.37;;
803;SDS011;25687;49.976;8.240;2024-01-30T11:05:23;17.53;;;14.87;;
803;SDS011;25687;49.976;8.240;2024-01-30T11:07:52;20.63;;;16.43;;
803;SDS011;25687;49.976;8.240;2024-01-30T11:10:17;22.03;;;16.13;;
803;SDS011;25687;49.976;8.240;2024-01-30T11:12:42;18.70;;;16.13;;
803;SDS011;25687;49.976;8.240;2024-01-30T11:15:12;20.43;;;14.97;;
803;SDS011;25687;49.976;8.240;2024-01-30T11:17:39;24.00;;;16.13;;
803;SDS011;25687;49.976;8.240;2024-01-30T11:20:12;20.13;;;16.87;;
803;SDS011;25687;49.976;8.240;2024-01-30T11:22:41;18.40;;;15.97;;
803;SDS011;25687;49.976;8.240;2024-01-30T11:25:10;21.17;;;17.07;;
803;SDS011;25687;49.976;8.240;2024-01-30T11:27:37;18.77;;;16.07;;
803;SDS011;25687;49.976;8.240;2024-01-30T11:30:02;21.57;;;16.47;;
803;SDS011;25687;49.976;8.240;2024-01-30T11:32:28;25.27;;;16.33;;
803;SDS011;25687;49.976;8.240;2024-01-30T11:34:54;20.90;;;16.37;;
803;SDS011;25687;49.976;8.240;2024-01-30T11:37:20;23.10;;;16.37;;
803;SDS011;25687;49.976;8.240;2024-01-30T11:39:46;20.93;;;16.93;;
803;SDS011;25687;49.976;8.240;2024-01-30T11:42:13;19.97;;;16.70;;
803;SDS011;25687;49.976;8.240;2024-01-30T11:44:38;20.07;;;16.17;;
803;SDS011;25687;49.976;8.240;2024-01-30T11:47:04;20.33;;;17.20;;
803;SDS011;25687;49.976;8.240;2024-01-30T11:49:29;19.50;;;16.73;;
803;SDS011;25687;49.976;8.240;2024-01-30T11:51:54;17.90;;;15.43;;
803;SDS011;25687;49.976;8.240;2024-01-30T11:54:20;19.70;;;15.87;;
803;SDS011;25687;49.976;8.240;2024-01-30T11:56:45;20.97;;;16.67;;
803;SDS011;25687;49.976;8.240;2024-01-30T11:59:10;22.53;;;17.00;;
803;SDS011;25687;49.976;8.240;2024-01-30T12:01:36;22.20;;;16.53;;
803;SDS011;25687;49.976;8.240;2024-01-30T12:04:01;22.00;;;16.50;;
803;SDS011;25687;49.976;8.240;2024-01-30T12:06:27;23.47;;;18.50;;
803;SDS011;25687;49.976;8.240;2024-01-30T12:08:59;23.27;;;17.50;;
803;SDS011;25687;49.976;8.240;2024-01-30T12:11:26;19.30;;;16.10;;
803;SDS011;25687;49.976;8.240;2024-01-30T12:13:52;18.97;;;16.97;;
803;SDS011;25687;49.976;8.240;2024-01-30T12:16:19;21.33;;;17.40;;
803;SDS011;25687;49.976;8.240;2024-01-30T12:18:45;23.30;;;18.10;;
803;SDS011;25687;49.976;8.240;2024-01-30T12:21:10;25.07;;;17.90;;
803;SDS011;25687;49.976;8.240;2024-01-30T12:23:35;22.03;;;17.67;;
803;SDS011;25687;49.976;8.240;2024-01-30T12:26:01;21.07;;;17.10;;
803;SDS011;25687;49.976;8.240;2024-01-30T12:28:28;22.57;;;18.57;;
803;SDS011;25687;49.976;8.240;2024-01-30T12:30:55;20.00;;;17.87;;
803;SDS011;25687;49.976;8.240;2024-01-30T12:33:24;25.53;;;18.63;;
803;SDS011;25687;49.976;8.240;2024-01-30T12:35:51;24.77;;;19.80;;
803;SDS011;25687;49.976;8.240;2024-01-30T12:38:17;22.20;;;18.03;;
803;SDS011;25687;49.976;8.240;2024-01-30T12:40:42;24.63;;;19.30;;
803;SDS011;25687;49.976;8.240;2024-01-30T12:43:08;26.83;;;19.23;;
803;SDS011;25687;49.976;8.240;2024-01-30T12:45:33;24.17;;;17.77;;
803;SDS011;25687;49.976;8.240;2024-01-30T12:47:58;21.93;;;18.53;;
803;SDS011;25687;49.976;8.240;2024-01-30T12:50:24;23.27;;;19.20;;
803;SDS011;25687;49.976;8.240;2024-01-30T12:52:49;24.20;;;18.17;;
803;SDS011;25687;49.976;8.240;2024-01-30T12:55:14;22.57;;;18.50;;
803;SDS011;25687;49.976;8.240;2024-01-30T12:57:40;24.83;;;18.93;;
803;SDS011;25687;49.976;8.240;2024-01-30T13:00:06;22.90;;;18.47;;
803;SDS011;25687;49.976;8.240;2024-01-30T13:02:35;23.63;;;19.23;;
803;SDS011;25687;49.976;8.240;2024-01-30T13:05:05;19.30;;;16.83;;
803;SDS011;25687;49.976;8.240;2024-01-30T13:07:30;24.10;;;17.67;;
803;SDS011;25687;49.976;8.240;2024-01-30T13:09:56;20.47;;;17.23;;
803;SDS011;25687;49.976;8.240;2024-01-30T13:12:27;19.90;;;17.30;;
803;SDS011;25687;49.976;8.240;2024-01-30T13:14:53;21.27;;;17.27;;
803;SDS011;25687;49.976;8.240;2024-01-30T13:17:18;19.27;;;16.63;;
803;SDS011;25687;49.976;8.240;2024-01-30T13:19:44;19.70;;;16.53;;
803;SDS011;25687;49.976;8.240;2024-01-30T13:22:09;20.43;;;16.77;;
803;SDS011;25687;49.976;8.240;2024-01-30T13:24:34;19.63;;;16.33;;
803;SDS011;25687;49.976;8.240;2024-01-30T13:26:59;23.17;;;16.43;;
803;SDS011;25687;49.976;8.240;2024-01-30T13:29:25;21.47;;;16.10;;
803;SDS011;25687;49.976;8.240;2024-01-30T13:31:50;24.33;;;17.00;;
803;SDS011;25687;49.976;8.240;2024-01-30T13:34:15;18.63;;;16.63;;
803;SDS011;25687;49.976;8.240;2024-01-30T13:36:41;21.43;;;15.53;;
803;SDS011;25687;49.976;8.240;2024-01-30T13:39:07;20.63;;;14.87;;
803;SDS011;25687;49.976;8.240;2024-01-30T13:41:34;28.33;;;13.83;;
803;SDS011;25687;49.976;8.240;2024-01-30T13:43:59;16.60;;;13.47;;
803;SDS011;25687;49.976;8.240;2024-01-30T13:46:25;13.93;;;12.53;;
803;SDS011;25687;49.976;8.240;2024-01-30T13:48:50;16.00;;;13.37;;
803;SDS011;25687;49.976;8.240;2024-01-30T13:51:16;17.53;;;12.90;;
803;SDS011;25687;49.976;8.240;2024-01-30T13:53:42;16.03;;;12.47;;
803;SDS011;25687;49.976;8.240;2024-01-30T13:56:07;15.40;;;12.60;;
803;SDS011;25687;49.976;8.240;2024-01-30T13:58:33;15.87;;;13.17;;
803;SDS011;25687;49.976;8.240;2024-01-30T14:00:58;16.73;;;13.40;;
803;SDS011;25687;49.976;8.240;2024-01-30T14:03:24;15.97;;;13.07;;
803;SDS011;25687;49.976;8.240;2024-01-30T14:05:49;15.13;;;12.87;;
803;SDS011;25687;49.976;8.240;2024-01-30T14:08:15;15.13;;;12.87;;
803;SDS011;25687;49.976;8.240;2024-01-30T14:10:40;16.03;;;13.40;;
803;SDS011;25687;49.976;8.240;2024-01-30T14:13:05;19.67;;;14.60;;
803;SDS011;25687;49.976;8.240;2024-01-30T14:15:31;19.93;;;15.93;;
803;SDS011;25687;49.976;8.240;2024-01-30T14:17:56;17.53;;;14.80;;
803;SDS011;25687;49.976;8.240;2024-01-30T14:20:21;21.60;;;15.67;;
803;SDS011;25687;49.976;8.240;2024-01-30T14:22:47;19.23;;;15.20;;
803;SDS011;25687;49.976;8.240;2024-01-30T14:25:12;20.43;;;16.10;;
803;SDS011;25687;49.976;8.240;2024-01-30T14:27:37;20.67;;;15.93;;
803;SDS011;25687;49.976;8.240;2024-01-30T14:30:03;23.53;;;17.17;;
803;SDS011;25687;49.976;8.240;2024-01-30T14:32:28;25.77;;;17.93;;
803;SDS011;25687;49.976;8.240;2024-01-30T14:34:53;18.17;;;16.03;;
803;SDS011;25687;49.976;8.240;2024-01-30T14:37:20;18.80;;;15.47;;
803;SDS011;25687;49.976;8.240;2024-01-30T14:39:46;21.37;;;17.07;;
803;SDS011;25687;49.976;8.240;2024-01-30T14:42:12;21.87;;;15.37;;
803;SDS011;25687;49.976;8.240;2024-01-30T14:44:38;23.67;;;16.97;;
803;SDS011;25687;49.976;8.240;2024-01-30T14:47:04;24.67;;;16.23;;